sensor_id;sensor_type;location;lat;lon;timestamp;P1;durP1;ratioP1;P2;durP2;ratioP2
43118;SDS011;28729;49.838;8.650;2023-06-10T00:00:58;10.20;;;7.35;;
43118;SDS011;28729;49.838;8.650;2023-06-10T00:05:01;10.68;;;7.68;;
43118;SDS011;28729;49.838;8.650;2023-06-10T00:09:03;9.33;;;7.37;;
43118;SDS011;28729;49.838;8.650;2023-06-10T00:13:07;9.95;;;7.13;;
43118;SDS011;28729;49.838;8.650;2023-06-10T00:17:12;11.60;;;7.90;;
43118;SDS011;28729;49.838;8.650;2023-06-10T00:21:16;9.82;;;7.60;;
43118;SDS011;28729;49.838;8.650;2023-06-10T00:25:18;8.88;;;6.95;;
43118;SDS011;28729;49.838;8.650;2023-06-10T00:29:20;10.93;;;7.77;;
43118;SDS011;28729;49.838;8.650;2023-06-10T00:33:22;10.45;;;7.28;;
43118;SDS011;28729;49.838;8.650;2023-06-10T00:37:24;12.40;;;7.53;;
43118;SDS011;28729;49.838;8.650;2023-06-10T00:41:26;8.17;;;6.87;;
43118;SDS011;28729;49.838;8.650;2023-06-10T00:45:28;12.20;;;7.50;;
43118;SDS011;28729;49.838;8.650;2023-06-10T00:49:31;11.90;;;7.90;;
43118;SDS011;28729;49.838;8.650;2023-06-10T00:53:34;10.80;;;7.07;;
43118;SDS011;28729;49.838;8.650;2023-06-10T00:57:41;12.95;;;8.02;;
43118;SDS011;28729;49.838;8.650;2023-06-10T01:01:46;11.05;;;7.97;;
43118;SDS011;28729;49.838;8.650;2023-06-10T01:05:59;9.35;;;7.38;;
43118;SDS011;28729;49.838;8.650;2023-06-10T01:10:10;12.23;;;8.15;;
43118;SDS011;28729;49.838;8.650;2023-06-10T01:14:17;12.32;;;8.20;;
43118;SDS011;28729;49.838;8.650;2023-06-10T01:18:20;9.70;;;7.80;;
43118;SDS011;28729;49.838;8.650;2023-06-10T01:22:26;12.10;;;7.57;;
43118;SDS011;28729;49.838;8.650;2023-06-10T01:26:38;10.35;;;8.40;;
43118;SDS011;28729;49.838;8.650;2023-06-10T01:35:17;13.13;;;8.27;;
43118;SDS011;28729;49.838;8.650;2023-06-10T01:39:22;11.43;;;8.35;;
43118;SDS011;28729;49.838;8.650;2023-06-10T01:43:26;18.88;;;9.13;;
43118;SDS011;28729;49.838;8.650;2023-06-10T01:47:28;9.15;;;7.30;;
43118;SDS011;28729;49.838;8.650;2023-06-10T01:51:30;11.27;;;8.57;;
43118;SDS011;28729;49.838;8.650;2023-06-10T01:55:33;12.75;;;8.15;;
43118;SDS011;28729;49.838;8.650;2023-06-10T01:59:35;10.45;;;7.40;;
43118;SDS011;28729;49.838;8.650;2023-06-10T02:03:39;11.02;;;7.93;;
43118;SDS011;28729;49.838;8.650;2023-06-10T02:07:40;9.70;;;7.22;;
43118;SDS011;28729;49.838;8.650;2023-06-10T02:11:42;9.80;;;7.97;;
43118;SDS011;28729;49.838;8.650;2023-06-10T02:15:44;13.30;;;8.75;;
43118;SDS011;28729;49.838;8.650;2023-06-10T02:19:46;12.90;;;8.57;;
43118;SDS011;28729;49.838;8.650;2023-06-10T02:23:55;9.20;;;7.60;;
43118;SDS011;28729;49.838;8.650;2023-06-10T02:27:57;12.95;;;8.55;;
43118;SDS011;28729;49.838;8.650;2023-06-10T02:31:59;10.13;;;8.17;;
43118;SDS011;28729;49.838;8.650;2023-06-10T02:36:01;13.05;;;8.70;;
43118;SDS011;28729;49.838;8.650;2023-06-10T02:40:03;11.57;;;8.02;;
43118;SDS011;28729;49.838;8.650;2023-06-10T02:44:06;12.68;;;8.02;;
43118;SDS011;28729;49.838;8.650;2023-06-10T02:48:08;10.30;;;7.90;;
43118;SDS011;28729;49.838;8.650;2023-06-10T02:52:11;12.93;;;8.65;;
43118;SDS011;28729;49.838;8.650;2023-06-10T02:56:15;16.30;;;8.10;;
43118;SDS011;28729;49.838;8.650;2023-06-10T03:00:19;13.10;;;8.55;;
43118;SDS011;28729;49.838;8.650;2023-06-10T03:04:23;11.45;;;8.85;;
43118;SDS011;28729;49.838;8.650;2023-06-10T03:08:34;11.93;;;9.20;;
43118;SDS011;28729;49.838;8.650;2023-06-10T03:12:40;12.73;;;8.15;;
43118;SDS011;28729;49.838;8.650;2023-06-10T03:16:42;12.30;;;8.87;;
43118;SDS011;28729;49.838;8.650;2023-06-10T03:20:46;12.80;;;8.68;;
43118;SDS011;28729;49.838;8.650;2023-06-10T03:24:49;10.82;;;8.27;;
43118;SDS011;28729;49.838;8.650;2023-06-10T03:28:53;14.00;;;9.18;;
43118;SDS011;28729;49.838;8.650;2023-06-10T03:32:57;12.95;;;9.60;;
43118;SDS011;28729;49.838;8.650;2023-06-10T03:37:01;12.90;;;9.40;;
43118;SDS011;28729;49.838;8.650;2023-06-10T03:41:05;14.10;;;10.52;;
43118;SDS011;28729;49.838;8.650;2023-06-10T03:45:08;13.60;;;11.05;;
43118;SDS011;28729;49.838;8.650;2023-06-10T03:49:11;11.73;;;9.90;;
43118;SDS011;28729;49.838;8.650;2023-06-10T03:53:13;12.52;;;9.23;;
43118;SDS011;28729;49.838;8.650;2023-06-10T03:57:17;15.23;;;10.40;;
43118;SDS011;28729;49.838;8.650;2023-06-10T04:01:19;13.18;;;9.88;;
43118;SDS011;28729;49.838;8.650;2023-06-10T04:05:22;13.38;;;10.32;;
43118;SDS011;28729;49.838;8.650;2023-06-10T04:09:26;10.80;;;9.00;;
43118;SDS011;28729;49.838;8.650;2023-06-10T04:13:27;11.30;;;8.60;;
43118;SDS011;28729;49.838;8.650;2023-06-10T04:17:32;13.30;;;9.18;;
43118;SDS011;28729;49.838;8.650;2023-06-10T04:21:34;11.32;;;9.43;;
43118;SDS011;28729;49.838;8.650;2023-06-10T04:25:37;14.07;;;9.05;;
43118;SDS011;28729;49.838;8.650;2023-06-10T04:29:39;11.43;;;8.47;;
43118;SDS011;28729;49.838;8.650;2023-06-10T04:33:41;14.27;;;9.35;;
43118;SDS011;28729;49.838;8.650;2023-06-10T04:37:44;13.68;;;8.13;;
43118;SDS011;28729;49.838;8.650;2023-06-10T04:41:47;10.93;;;8.30;;
43118;SDS011;28729;49.838;8.650;2023-06-10T04:45:49;11.73;;;8.75;;
43118;SDS011;28729;49.838;8.650;2023-06-10T04:49:50;12.77;;;8.18;;
43118;SDS011;28729;49.838;8.650;2023-06-10T04:53:53;11.98;;;8.18;;
43118;SDS011;28729;49.838;8.650;2023-06-10T04:57:55;11.13;;;8.03;;
43118;SDS011;28729;49.838;8.650;2023-06-10T05:01:56;11.68;;;8.48;;
43118;SDS011;28729;49.838;8.650;2023-06-10T05:05:58;11.63;;;8.40;;
43118;SDS011;28729;49.838;8.650;2023-06-10T05:10:00;10.02;;;8.18;;
43118;SDS011;28729;49.838;8.650;2023-06-10T05:14:03;11.25;;;9.20;;
43118;SDS011;28729;49.838;8.650;2023-06-10T05:18:04;9.10;;;7.32;;
43118;SDS011;28729;49.838;8.650;2023-06-10T05:22:07;12.52;;;7.90;;
43118;SDS011;28729;49.838;8.650;2023-06-10T05:26:09;12.25;;;8.23;;
43118;SDS011;28729;49.838;8.650;2023-06-10T05:30:11;9.63;;;7.45;;
43118;SDS011;28729;49.838;8.650;2023-06-10T05:34:14;12.30;;;7.63;;
43118;SDS011;28729;49.838;8.650;2023-06-10T05:38:16;9.00;;;7.53;;
43118;SDS011;28729;49.838;8.650;2023-06-10T05:42:18;12.77;;;7.70;;
43118;SDS011;28729;49.838;8.650;2023-06-10T05:46:20;11.23;;;8.02;;
43118;SDS011;28729;49.838;8.650;2023-06-10T05:50:23;16.05;;;8.35;;
43118;SDS011;28729;49.838;8.650;2023-06-10T05:54:26;10.93;;;7.93;;
43118;SDS011;28729;49.838;8.650;2023-06-10T05:58:30;11.75;;;8.55;;
43118;SDS011;28729;49.838;8.650;2023-06-10T06:02:32;11.57;;;8.07;;
43118;SDS011;28729;49.838;8.650;2023-06-10T06:06:35;10.67;;;8.67;;
43118;SDS011;28729;49.838;8.650;2023-06-10T06:10:37;12.23;;;8.43;;
43118;SDS011;28729;49.838;8.650;2023-06-10T06:14:39;13.00;;;7.47;;
43118;SDS011;28729;49.838;8.650;2023-06-10T06:18:41;10.50;;;7.70;;
43118;SDS011;28729;49.838;8.650;2023-06-10T06:22:43;10.65;;;7.70;;
43118;SDS011;28729;49.838;8.650;2023-06-10T06:26:45;12.32;;;7.43;;
43118;SDS011;28729;49.838;8.650;2023-06-10T06:34:50;12.10;;;8.02;;
43118;SDS011;28729;49.838;8.650;2023-06-10T06:38:56;9.32;;;7.38;;
43118;SDS011;28729;49.838;8.650;2023-06-10T06:43:01;10.73;;;8.60;;
43118;SDS011;28729;49.838;8.650;2023-06-10T06:47:10;11.27;;;8.77;;
43118;SDS011;28729;49.838;8.650;2023-06-10T06:51:13;13.18;;;7.35;;
43118;SDS011;28729;49.838;8.650;2023-06-10T06:55:15;9.80;;;7.30;;
43118;SDS011;28729;49.838;8.650;2023-06-10T06:59:18;11.10;;;8.73;;
43118;SDS011;28729;49.838;8.650;2023-06-10T07:03:21;10.30;;;7.88;;
43118;SDS011;28729;49.838;8.650;2023-06-10T07:07:23;10.83;;;8.53;;
43118;SDS011;28729;49.838;8.650;2023-06-10T07:11:25;9.55;;;8.30;;
43118;SDS011;28729;49.838;8.650;2023-06-10T07:15:28;10.38;;;8.23;;
43118;SDS011;28729;49.838;8.650;2023-06-10T07:19:30;9.33;;;7.97;;
43118;SDS011;28729;49.838;8.650;2023-06-10T07:23:31;8.17;;;7.17;;
43118;SDS011;28729;49.838;8.650;2023-06-10T07:27:33;9.70;;;7.27;;
43118;SDS011;28729;49.838;8.650;2023-06-10T07:31:37;8.23;;;7.35;;
43118;SDS011;28729;49.838;8.650;2023-06-10T07:39:44;10.55;;;7.93;;
43118;SDS011;28729;49.838;8.650;2023-06-10T07:43:46;9.50;;;7.50;;
43118;SDS011;28729;49.838;8.650;2023-06-10T07:47:49;8.40;;;7.60;;
43118;SDS011;28729;49.838;8.650;2023-06-10T07:51:54;10.85;;;8.15;;
43118;SDS011;28729;49.838;8.650;2023-06-10T07:55:57;14.18;;;7.28;;
43118;SDS011;28729;49.838;8.650;2023-06-10T07:59:59;10.37;;;8.27;;
43118;SDS011;28729;49.838;8.650;2023-06-10T08:04:12;10.02;;;7.68;;
43118;SDS011;28729;49.838;8.650;2023-06-10T08:08:14;9.85;;;7.90;;
43118;SDS011;28729;49.838;8.650;2023-06-10T08:12:16;12.00;;;8.53;;
43118;SDS011;28729;49.838;8.650;2023-06-10T08:16:19;11.20;;;7.28;;
43118;SDS011;28729;49.838;8.650;2023-06-10T08:20:23;10.25;;;7.90;;
43118;SDS011;28729;49.838;8.650;2023-06-10T08:24:26;10.52;;;7.72;;
43118;SDS011;28729;49.838;8.650;2023-06-10T08:28:28;9.07;;;7.47;;
43118;SDS011;28729;49.838;8.650;2023-06-10T08:32:30;11.23;;;7.30;;
43118;SDS011;28729;49.838;8.650;2023-06-10T08:36:34;11.35;;;8.55;;
43118;SDS011;28729;49.838;8.650;2023-06-10T08:40:36;11.65;;;8.10;;
43118;SDS011;28729;49.838;8.650;2023-06-10T08:48:42;10.80;;;8.27;;
43118;SDS011;28729;49.838;8.650;2023-06-10T08:52:46;14.13;;;8.77;;
43118;SDS011;28729;49.838;8.650;2023-06-10T08:56:51;11.30;;;8.75;;
43118;SDS011;28729;49.838;8.650;2023-06-10T09:00:57;9.48;;;8.30;;
43118;SDS011;28729;49.838;8.650;2023-06-10T09:05:00;13.27;;;8.38;;
43118;SDS011;28729;49.838;8.650;2023-06-10T09:09:05;10.90;;;8.60;;
43118;SDS011;28729;49.838;8.650;2023-06-10T09:13:07;11.30;;;8.13;;
43118;SDS011;28729;49.838;8.650;2023-06-10T09:17:09;10.88;;;8.70;;
43118;SDS011;28729;49.838;8.650;2023-06-10T09:21:12;9.63;;;8.63;;
43118;SDS011;28729;49.838;8.650;2023-06-10T09:25:15;11.75;;;8.15;;
43118;SDS011;28729;49.838;8.650;2023-06-10T09:29:19;9.25;;;8.23;;
43118;SDS011;28729;49.838;8.650;2023-06-10T09:33:23;10.40;;;8.70;;
43118;SDS011;28729;49.838;8.650;2023-06-10T09:37:29;11.27;;;9.02;;
43118;SDS011;28729;49.838;8.650;2023-06-10T09:41:35;10.70;;;7.78;;
43118;SDS011;28729;49.838;8.650;2023-06-10T09:45:39;10.15;;;8.70;;
43118;SDS011;28729;49.838;8.650;2023-06-10T09:49:41;15.18;;;8.30;;
43118;SDS011;28729;49.838;8.650;2023-06-10T09:53:47;9.00;;;8.00;;
43118;SDS011;28729;49.838;8.650;2023-06-10T09:57:53;8.57;;;7.68;;
43118;SDS011;28729;49.838;8.650;2023-06-10T10:01:56;10.45;;;7.28;;
43118;SDS011;28729;49.838;8.650;2023-06-10T10:10:01;9.52;;;7.13;;
43118;SDS011;28729;49.838;8.650;2023-06-10T10:18:13;10.13;;;7.70;;
43118;SDS011;28729;49.838;8.650;2023-06-10T10:22:24;10.15;;;7.43;;
43118;SDS011;28729;49.838;8.650;2023-06-10T10:26:27;9.07;;;7.95;;
43118;SDS011;28729;49.838;8.650;2023-06-10T10:30:34;8.65;;;7.18;;
43118;SDS011;28729;49.838;8.650;2023-06-10T10:34:45;8.45;;;7.15;;
43118;SDS011;28729;49.838;8.650;2023-06-10T10:38:51;8.32;;;7.30;;
43118;SDS011;28729;49.838;8.650;2023-06-10T10:42:53;9.20;;;8.23;;
43118;SDS011;28729;49.838;8.650;2023-06-10T10:46:56;9.73;;;6.90;;
43118;SDS011;28729;49.838;8.650;2023-06-10T10:51:05;9.02;;;5.93;;
43118;SDS011;28729;49.838;8.650;2023-06-10T10:55:12;7.10;;;6.13;;
43118;SDS011;28729;49.838;8.650;2023-06-10T10:59:15;8.15;;;5.65;;
43118;SDS011;28729;49.838;8.650;2023-06-10T11:03:21;7.03;;;5.93;;
43118;SDS011;28729;49.838;8.650;2023-06-10T11:07:26;7.90;;;5.13;;
43118;SDS011;28729;49.838;8.650;2023-06-10T11:11:31;7.28;;;5.80;;
43118;SDS011;28729;49.838;8.650;2023-06-10T11:15:37;5.93;;;5.10;;
43118;SDS011;28729;49.838;8.650;2023-06-10T11:19:40;7.63;;;4.93;;
43118;SDS011;28729;49.838;8.650;2023-06-10T11:23:48;6.78;;;5.50;;
43118;SDS011;28729;49.838;8.650;2023-06-10T11:27:52;9.02;;;4.38;;
43118;SDS011;28729;49.838;8.650;2023-06-10T11:31:54;6.35;;;4.78;;
43118;SDS011;28729;49.838;8.650;2023-06-10T11:35:56;6.47;;;5.03;;
43118;SDS011;28729;49.838;8.650;2023-06-10T11:39:59;8.10;;;4.88;;
43118;SDS011;28729;49.838;8.650;2023-06-10T11:44:12;5.43;;;4.60;;
43118;SDS011;28729;49.838;8.650;2023-06-10T11:48:20;5.15;;;4.28;;
43118;SDS011;28729;49.838;8.650;2023-06-10T11:52:28;9.52;;;4.72;;
43118;SDS011;28729;49.838;8.650;2023-06-10T12:00:37;5.25;;;4.22;;
43118;SDS011;28729;49.838;8.650;2023-06-10T12:04:48;7.57;;;5.30;;
43118;SDS011;28729;49.838;8.650;2023-06-10T12:08:50;5.63;;;4.32;;
43118;SDS011;28729;49.838;8.650;2023-06-10T12:12:53;7.65;;;5.22;;
43118;SDS011;28729;49.838;8.650;2023-06-10T12:16:55;6.00;;;4.78;;
43118;SDS011;28729;49.838;8.650;2023-06-10T12:20:57;5.90;;;5.32;;
43118;SDS011;28729;49.838;8.650;2023-06-10T12:25:01;6.20;;;5.60;;
43118;SDS011;28729;49.838;8.650;2023-06-10T12:29:39;7.20;;;5.85;;
43118;SDS011;28729;49.838;8.650;2023-06-10T12:33:34;6.57;;;6.00;;
43118;SDS011;28729;49.838;8.650;2023-06-10T12:37:35;7.40;;;5.80;;
43118;SDS011;28729;49.838;8.650;2023-06-10T12:41:47;6.55;;;5.95;;
43118;SDS011;28729;49.838;8.650;2023-06-10T12:45:50;5.93;;;5.38;;
43118;SDS011;28729;49.838;8.650;2023-06-10T12:49:52;6.25;;;5.65;;
43118;SDS011;28729;49.838;8.650;2023-06-10T12:53:54;5.65;;;5.15;;
43118;SDS011;28729;49.838;8.650;2023-06-10T12:57:56;6.78;;;6.07;;
43118;SDS011;28729;49.838;8.650;2023-06-10T13:01:58;6.57;;;5.78;;
43118;SDS011;28729;49.838;8.650;2023-06-10T13:06:01;6.32;;;5.80;;
43118;SDS011;28729;49.838;8.650;2023-06-10T13:10:03;6.85;;;6.10;;
43118;SDS011;28729;49.838;8.650;2023-06-10T13:14:05;6.47;;;5.88;;
43118;SDS011;28729;49.838;8.650;2023-06-10T13:18:08;8.65;;;6.35;;
43118;SDS011;28729;49.838;8.650;2023-06-10T13:22:10;6.95;;;6.25;;
43118;SDS011;28729;49.838;8.650;2023-06-10T13:26:12;8.57;;;5.95;;
43118;SDS011;28729;49.838;8.650;2023-06-10T13:30:15;5.68;;;5.18;;
43118;SDS011;28729;49.838;8.650;2023-06-10T13:34:17;6.38;;;5.63;;
43118;SDS011;28729;49.838;8.650;2023-06-10T13:38:19;5.60;;;5.10;;
43118;SDS011;28729;49.838;8.650;2023-06-10T13:42:21;6.25;;;5.65;;
43118;SDS011;28729;49.838;8.650;2023-06-10T13:46:23;7.13;;;5.57;;
43118;SDS011;28729;49.838;8.650;2023-06-10T13:50:25;5.82;;;5.32;;
43118;SDS011;28729;49.838;8.650;2023-06-10T13:54:27;7.28;;;5.82;;
43118;SDS011;28729;49.838;8.650;2023-06-10T13:58:29;6.63;;;6.13;;
43118;SDS011;28729;49.838;8.650;2023-06-10T14:02:31;7.65;;;6.13;;
43118;SDS011;28729;49.838;8.650;2023-06-10T14:06:33;5.50;;;5.00;;
43118;SDS011;28729;49.838;8.650;2023-06-10T14:10:35;6.38;;;5.78;;
43118;SDS011;28729;49.838;8.650;2023-06-10T14:14:37;6.03;;;5.53;;
43118;SDS011;28729;49.838;8.650;2023-06-10T14:18:38;6.78;;;5.80;;
43118;SDS011;28729;49.838;8.650;2023-06-10T14:22:41;7.95;;;5.78;;
43118;SDS011;28729;49.838;8.650;2023-06-10T14:26:43;8.45;;;5.68;;
43118;SDS011;28729;49.838;8.650;2023-06-10T14:30:45;8.93;;;6.25;;
43118;SDS011;28729;49.838;8.650;2023-06-10T14:34:47;11.63;;;5.50;;
43118;SDS011;28729;49.838;8.650;2023-06-10T14:38:50;7.18;;;5.68;;
43118;SDS011;28729;49.838;8.650;2023-06-10T14:42:52;6.10;;;5.50;;
43118;SDS011;28729;49.838;8.650;2023-06-10T14:46:54;6.18;;;5.57;;
43118;SDS011;28729;49.838;8.650;2023-06-10T14:50:56;6.07;;;5.47;;
43118;SDS011;28729;49.838;8.650;2023-06-10T14:54:57;5.97;;;5.38;;
43118;SDS011;28729;49.838;8.650;2023-06-10T14:58:59;7.25;;;5.45;;
43118;SDS011;28729;49.838;8.650;2023-06-10T15:03:02;6.40;;;5.43;;
43118;SDS011;28729;49.838;8.650;2023-06-10T15:07:04;7.05;;;5.45;;
43118;SDS011;28729;49.838;8.650;2023-06-10T15:11:06;5.75;;;5.15;;
43118;SDS011;28729;49.838;8.650;2023-06-10T15:15:08;5.45;;;4.95;;
43118;SDS011;28729;49.838;8.650;2023-06-10T15:19:11;5.18;;;4.68;;
43118;SDS011;28729;49.838;8.650;2023-06-10T15:23:13;6.97;;;5.15;;
43118;SDS011;28729;49.838;8.650;2023-06-10T15:27:16;9.13;;;5.32;;
43118;SDS011;28729;49.838;8.650;2023-06-10T15:31:19;6.30;;;5.70;;
43118;SDS011;28729;49.838;8.650;2023-06-10T15:35:20;6.53;;;5.75;;
43118;SDS011;28729;49.838;8.650;2023-06-10T15:39:23;6.03;;;5.50;;
43118;SDS011;28729;49.838;8.650;2023-06-10T15:43:26;6.03;;;5.40;;
43118;SDS011;28729;49.838;8.650;2023-06-10T15:47:28;7.13;;;5.10;;
43118;SDS011;28729;49.838;8.650;2023-06-10T15:51:30;7.03;;;5.32;;
43118;SDS011;28729;49.838;8.650;2023-06-10T15:55:33;8.32;;;5.32;;
43118;SDS011;28729;49.838;8.650;2023-06-10T15:59:35;6.45;;;5.82;;
43118;SDS011;28729;49.838;8.650;2023-06-10T16:03:37;6.15;;;4.85;;
43118;SDS011;28729;49.838;8.650;2023-06-10T16:07:40;4.93;;;4.38;;
43118;SDS011;28729;49.838;8.650;2023-06-10T16:11:42;5.90;;;4.82;;
43118;SDS011;28729;49.838;8.650;2023-06-10T16:15:43;7.30;;;4.78;;
43118;SDS011;28729;49.838;8.650;2023-06-10T16:19:46;5.70;;;4.65;;
43118;SDS011;28729;49.838;8.650;2023-06-10T16:27:50;7.00;;;5.18;;
43118;SDS011;28729;49.838;8.650;2023-06-10T16:31:52;5.15;;;4.18;;
43118;SDS011;28729;49.838;8.650;2023-06-10T16:35:55;6.18;;;5.00;;
43118;SDS011;28729;49.838;8.650;2023-06-10T16:39:56;5.60;;;4.50;;
43118;SDS011;28729;49.838;8.650;2023-06-10T16:43:58;5.35;;;4.22;;
43118;SDS011;28729;49.838;8.650;2023-06-10T16:48:04;8.13;;;4.88;;
43118;SDS011;28729;49.838;8.650;2023-06-10T16:52:08;6.10;;;4.50;;
43118;SDS011;28729;49.838;8.650;2023-06-10T16:56:09;5.45;;;4.70;;
43118;SDS011;28729;49.838;8.650;2023-06-10T17:04:16;12.85;;;4.40;;
43118;SDS011;28729;49.838;8.650;2023-06-10T17:08:18;5.18;;;4.20;;
43118;SDS011;28729;49.838;8.650;2023-06-10T17:12:21;5.45;;;3.97;;
43118;SDS011;28729;49.838;8.650;2023-06-10T17:16:23;5.22;;;4.03;;
43118;SDS011;28729;49.838;8.650;2023-06-10T17:20:24;7.60;;;4.28;;
43118;SDS011;28729;49.838;8.650;2023-06-10T17:24:30;5.40;;;4.85;;
43118;SDS011;28729;49.838;8.650;2023-06-10T17:32:35;7.05;;;4.57;;
43118;SDS011;28729;49.838;8.650;2023-06-10T17:36:38;6.75;;;4.38;;
43118;SDS011;28729;49.838;8.650;2023-06-10T17:40:40;5.30;;;4.80;;
43118;SDS011;28729;49.838;8.650;2023-06-10T17:44:42;5.10;;;4.40;;
43118;SDS011;28729;49.838;8.650;2023-06-10T17:48:44;5.25;;;4.60;;
43118;SDS011;28729;49.838;8.650;2023-06-10T17:52:45;7.47;;;5.18;;
43118;SDS011;28729;49.838;8.650;2023-06-10T17:56:47;8.50;;;4.93;;
43118;SDS011;28729;49.838;8.650;2023-06-10T18:00:49;6.05;;;4.90;;
43118;SDS011;28729;49.838;8.650;2023-06-10T18:04:51;6.78;;;5.10;;
43118;SDS011;28729;49.838;8.650;2023-06-10T18:08:53;7.28;;;5.90;;
43118;SDS011;28729;49.838;8.650;2023-06-10T18:12:54;7.00;;;5.45;;
43118;SDS011;28729;49.838;8.650;2023-06-10T18:16:56;8.77;;;6.00;;
43118;SDS011;28729;49.838;8.650;2023-06-10T18:20:58;7.53;;;6.72;;
43118;SDS011;28729;49.838;8.650;2023-06-10T18:25:03;9.95;;;7.05;;
43118;SDS011;28729;49.838;8.650;2023-06-10T18:29:06;8.82;;;6.25;;
43118;SDS011;28729;49.838;8.650;2023-06-10T18:33:09;8.82;;;7.00;;
43118;SDS011;28729;49.838;8.650;2023-06-10T18:37:11;7.95;;;6.60;;
43118;SDS011;28729;49.838;8.650;2023-06-10T18:41:12;9.95;;;7.07;;
43118;SDS011;28729;49.838;8.650;2023-06-10T18:45:14;9.25;;;7.03;;
43118;SDS011;28729;49.838;8.650;2023-06-10T18:49:17;9.75;;;6.60;;
43118;SDS011;28729;49.838;8.650;2023-06-10T18:53:19;8.40;;;6.57;;
43118;SDS011;28729;49.838;8.650;2023-06-10T18:57:22;9.05;;;7.47;;
43118;SDS011;28729;49.838;8.650;2023-06-10T19:01:24;12.77;;;7.68;;
43118;SDS011;28729;49.838;8.650;2023-06-10T19:05:27;10.20;;;7.30;;
43118;SDS011;28729;49.838;8.650;2023-06-10T19:09:28;8.13;;;6.80;;
43118;SDS011;28729;49.838;8.650;2023-06-10T19:13:31;15.02;;;7.30;;
43118;SDS011;28729;49.838;8.650;2023-06-10T19:21:36;8.43;;;7.00;;
43118;SDS011;28729;49.838;8.650;2023-06-10T19:25:37;7.95;;;7.15;;
43118;SDS011;28729;49.838;8.650;2023-06-10T19:29:39;10.88;;;7.13;;
43118;SDS011;28729;49.838;8.650;2023-06-10T19:33:41;8.47;;;7.20;;
43118;SDS011;28729;49.838;8.650;2023-06-10T19:37:43;8.85;;;7.25;;
43118;SDS011;28729;49.838;8.650;2023-06-10T19:41:45;9.13;;;6.90;;
43118;SDS011;28729;49.838;8.650;2023-06-10T19:45:47;9.40;;;7.05;;
43118;SDS011;28729;49.838;8.650;2023-06-10T19:49:48;9.23;;;7.60;;
43118;SDS011;28729;49.838;8.650;2023-06-10T19:53:50;8.30;;;7.27;;
43118;SDS011;28729;49.838;8.650;2023-06-10T19:57:52;11.85;;;7.93;;
43118;SDS011;28729;49.838;8.650;2023-06-10T20:01:58;11.88;;;7.88;;
43118;SDS011;28729;49.838;8.650;2023-06-10T20:10:02;9.55;;;6.85;;
43118;SDS011;28729;49.838;8.650;2023-06-10T20:14:04;10.55;;;8.18;;
43118;SDS011;28729;49.838;8.650;2023-06-10T20:18:06;11.80;;;8.20;;
43118;SDS011;28729;49.838;8.650;2023-06-10T20:22:08;11.10;;;8.32;;
43118;SDS011;28729;49.838;8.650;2023-06-10T20:26:11;9.18;;;7.90;;
43118;SDS011;28729;49.838;8.650;2023-06-10T20:30:13;11.52;;;8.27;;
43118;SDS011;28729;49.838;8.650;2023-06-10T20:34:16;10.23;;;7.55;;
43118;SDS011;28729;49.838;8.650;2023-06-10T20:38:18;10.30;;;8.13;;
43118;SDS011;28729;49.838;8.650;2023-06-10T20:42:20;10.18;;;8.20;;
43118;SDS011;28729;49.838;8.650;2023-06-10T20:46:22;9.47;;;8.27;;
43118;SDS011;28729;49.838;8.650;2023-06-10T20:50:24;9.75;;;8.43;;
43118;SDS011;28729;49.838;8.650;2023-06-10T20:54:26;10.63;;;7.87;;
43118;SDS011;28729;49.838;8.650;2023-06-10T20:58:28;10.50;;;8.33;;
43118;SDS011;28729;49.838;8.650;2023-06-10T21:02:29;11.90;;;9.23;;
43118;SDS011;28729;49.838;8.650;2023-06-10T21:06:31;11.30;;;9.00;;
43118;SDS011;28729;49.838;8.650;2023-06-10T21:10:33;11.70;;;8.52;;
43118;SDS011;28729;49.838;8.650;2023-06-10T21:14:35;12.20;;;8.30;;
43118;SDS011;28729;49.838;8.650;2023-06-10T21:18:37;14.45;;;9.35;;
43118;SDS011;28729;49.838;8.650;2023-06-10T21:22:39;11.90;;;8.43;;
43118;SDS011;28729;49.838;8.650;2023-06-10T21:26:41;10.93;;;8.53;;
43118;SDS011;28729;49.838;8.650;2023-06-10T21:30:44;13.50;;;9.98;;
43118;SDS011;28729;49.838;8.650;2023-06-10T21:34:45;13.80;;;9.03;;
43118;SDS011;28729;49.838;8.650;2023-06-10T21:38:47;10.63;;;8.37;;
43118;SDS011;28729;49.838;8.650;2023-06-10T21:42:49;13.80;;;9.03;;
43118;SDS011;28729;49.838;8.650;2023-06-10T21:46:51;10.93;;;8.87;;
43118;SDS011;28729;49.838;8.650;2023-06-10T21:58:50;9.75;;;8.40;;
43118;SDS011;28729;49.838;8.650;2023-06-10T22:04:06;11.88;;;8.30;;
43118;SDS011;28729;49.838;8.650;2023-06-10T22:08:08;9.93;;;8.60;;
43118;SDS011;28729;49.838;8.650;2023-06-10T22:12:10;10.73;;;8.35;;
43118;SDS011;28729;49.838;8.650;2023-06-10T22:16:12;11.20;;;8.83;;
43118;SDS011;28729;49.838;8.650;2023-06-10T22:20:16;9.77;;;8.60;;
43118;SDS011;28729;49.838;8.650;2023-06-10T22:24:21;9.65;;;8.07;;
43118;SDS011;28729;49.838;8.650;2023-06-10T22:28:25;10.50;;;8.63;;
43118;SDS011;28729;49.838;8.650;2023-06-10T22:32:30;12.77;;;8.10;;
43118;SDS011;28729;49.838;8.650;2023-06-10T22:36:42;11.07;;;8.95;;
43118;SDS011;28729;49.838;8.650;2023-06-10T22:40:47;9.65;;;7.57;;
43118;SDS011;28729;49.838;8.650;2023-06-10T22:44:49;10.00;;;7.65;;
43118;SDS011;28729;49.838;8.650;2023-06-10T22:48:51;11.53;;;8.23;;
43118;SDS011;28729;49.838;8.650;2023-06-10T22:52:53;9.82;;;8.20;;
43118;SDS011;28729;49.838;8.650;2023-06-10T22:56:55;10.70;;;8.50;;
43118;SDS011;28729;49.838;8.650;2023-06-10T23:00:57;10.97;;;8.30;;
43118;SDS011;28729;49.838;8.650;2023-06-10T23:04:58;10.93;;;9.30;;
43118;SDS011;28729;49.838;8.650;2023-06-10T23:09:00;11.52;;;8.45;;
43118;SDS011;28729;49.838;8.650;2023-06-10T23:13:02;8.70;;;7.73;;
43118;SDS011;28729;49.838;8.650;2023-06-10T23:17:11;13.50;;;8.90;;
43118;SDS011;28729;49.838;8.650;2023-06-10T23:25:39;11.38;;;8.40;;
43118;SDS011;28729;49.838;8.650;2023-06-10T23:34:56;9.90;;;8.43;;
43118;SDS011;28729;49.838;8.650;2023-06-10T23:54:28;11.10;;;7.95;;
43118;SDS011;28729;49.838;8.650;2023-06-10T23:58:30;10.90;;;8.30;;
